Terminal Aerodrome Forecast
Issued by NWS Charleston, WV

Current Version | Previous Version | Graphics & Text | Print | Product List | Glossary On
Versions: 1 2 3 4 5 6 7 8 9 10 11 12 13 14 15 16 17 18 19 20 21 22 23 24 25 26 27
000
FTUS41 KRLX 201000 AAB
TAFBKW
TAF AMD
KBKW 201026Z 2010/2106 15009G17KT P6SM SCT010
     FM201300 15009G17KT P6SM SCT015
      TEMPO 2013/2015 15007KT BKN015
     FM201500 16006KT P6SM SCT025
     FM201700 16004KT P6SM SCT040
     FM210200 16008G16KT P6SM SCT250=

USA.gov is the U.S. government's official web portal to all federal, state and local government web resources and services.